首页
METAR-TAF:

METAR-TAF

机场 :

卡迪夫機場

加的夫, 威尔士

纬度: 51-24N, 经度: 003-21W, 海拔: 67米

当前天气观测

该预报发布于24分钟前的01:20 UTC
风速7节,风向西南,在西转西南之间变化
温度 11°C
湿度 82%
气压 1006 hPa
能见度10公里或以上

METAR: EGFF 170120Z AUTO 22007KT 180V240 9999 NCD 11/08 Q1006

时间: 02:44 (01:44 UTC)

预报

该预报发布于2小时和51分钟前的22:53 UTC
预报有效从17日的 00点(UTC)到 17日的 24点(UTC)
风速7节,风向南转西南
能见度10公里或以上
少量云层高于3000英尺
短暂存在
从 17日的 09点(UTC)到 17日的 24点(UTC)
能見度: 6000
阵雨
几率 30% :
短暂存在
从 17日的 10点(UTC)到 17日的 24点(UTC)
风速15节,风向南转西南,有时为25节阵风
能見度: 3000
多云层高于1400英尺, 积雨云.
大阵雨

TAF: EGFF 162253Z 1700/1724 21007KT 9999 FEW030 TEMPO 1709/1724 6000 SHRA PROB30 TEMPO 1710/1724 21015G25KT 3000 +SHRA BKN014CB

超过4000个机场的气象观测和天气预报(METAR&TAF报告)。

可查询的气象台以黄色和红色小点在地图上表示。

将鼠标移到小点上方,可查看气象台名称。

然后点击查看天气观测和预报。

如需切换地图:点击带黑十字的绿色按钮放大地图;点击带横线的绿色按钮缩小地图;或者点击绿色箭头查看邻近地区的地图。


METAR-TAF: